sensor_id;sensor_type;location;lat;lon;timestamp;P1;durP1;ratioP1;P2;durP2;ratioP2
313;SDS011;143;51.634;7.112;2023-04-20T00:00:28;10.40;;;3.60;;
313;SDS011;143;51.634;7.112;2023-04-20T00:02:53;6.10;;;3.20;;
313;SDS011;143;51.634;7.112;2023-04-20T00:05:20;5.87;;;3.30;;
313;SDS011;143;51.634;7.112;2023-04-20T00:07:47;6.10;;;2.90;;
313;SDS011;143;51.634;7.112;2023-04-20T00:10:13;4.10;;;2.67;;
313;SDS011;143;51.634;7.112;2023-04-20T00:12:40;5.90;;;2.87;;
313;SDS011;143;51.634;7.112;2023-04-20T00:15:06;8.93;;;2.70;;
313;SDS011;143;51.634;7.112;2023-04-20T00:17:32;5.77;;;3.00;;
313;SDS011;143;51.634;7.112;2023-04-20T00:19:57;7.10;;;3.10;;
313;SDS011;143;51.634;7.112;2023-04-20T00:22:23;6.00;;;2.77;;
313;SDS011;143;51.634;7.112;2023-04-20T00:24:50;3.10;;;2.37;;
313;SDS011;143;51.634;7.112;2023-04-20T00:27:16;8.83;;;3.10;;
313;SDS011;143;51.634;7.112;2023-04-20T00:29:42;8.10;;;2.60;;
313;SDS011;143;51.634;7.112;2023-04-20T00:32:07;8.10;;;3.00;;
313;SDS011;143;51.634;7.112;2023-04-20T00:34:33;4.53;;;3.00;;
313;SDS011;143;51.634;7.112;2023-04-20T00:36:59;9.20;;;3.37;;
313;SDS011;143;51.634;7.112;2023-04-20T00:39:25;5.17;;;2.90;;
313;SDS011;143;51.634;7.112;2023-04-20T00:41:51;7.60;;;3.40;;
313;SDS011;143;51.634;7.112;2023-04-20T00:44:17;8.03;;;2.73;;
313;SDS011;143;51.634;7.112;2023-04-20T00:46:42;9.80;;;2.97;;
313;SDS011;143;51.634;7.112;2023-04-20T00:49:08;7.23;;;2.80;;
313;SDS011;143;51.634;7.112;2023-04-20T00:51:35;7.53;;;2.93;;
313;SDS011;143;51.634;7.112;2023-04-20T00:54:01;13.17;;;3.40;;
313;SDS011;143;51.634;7.112;2023-04-20T00:56:27;4.43;;;2.67;;
313;SDS011;143;51.634;7.112;2023-04-20T00:58:52;4.20;;;2.47;;
313;SDS011;143;51.634;7.112;2023-04-20T01:01:18;8.27;;;2.57;;
313;SDS011;143;51.634;7.112;2023-04-20T01:03:44;4.80;;;2.80;;
313;SDS011;143;51.634;7.112;2023-04-20T01:06:11;5.40;;;2.63;;
313;SDS011;143;51.634;7.112;2023-04-20T01:08:48;8.53;;;3.30;;
313;SDS011;143;51.634;7.112;2023-04-20T01:11:14;5.17;;;2.90;;
313;SDS011;143;51.634;7.112;2023-04-20T01:13:41;6.70;;;2.60;;
313;SDS011;143;51.634;7.112;2023-04-20T01:16:07;6.20;;;2.80;;
313;SDS011;143;51.634;7.112;2023-04-20T01:21:10;12.33;;;3.27;;
313;SDS011;143;51.634;7.112;2023-04-20T01:23:37;7.33;;;2.70;;
313;SDS011;143;51.634;7.112;2023-04-20T01:26:07;6.03;;;2.80;;
313;SDS011;143;51.634;7.112;2023-04-20T01:28:34;6.37;;;3.50;;
313;SDS011;143;51.634;7.112;2023-04-20T01:31:01;5.80;;;3.10;;
313;SDS011;143;51.634;7.112;2023-04-20T01:33:27;6.50;;;2.70;;
313;SDS011;143;51.634;7.112;2023-04-20T01:35:53;9.20;;;2.70;;
313;SDS011;143;51.634;7.112;2023-04-20T01:38:19;4.50;;;2.60;;
313;SDS011;143;51.634;7.112;2023-04-20T01:40:45;3.90;;;2.37;;
313;SDS011;143;51.634;7.112;2023-04-20T01:43:11;5.77;;;3.10;;
313;SDS011;143;51.634;7.112;2023-04-20T01:45:37;5.70;;;3.10;;
313;SDS011;143;51.634;7.112;2023-04-20T01:48:03;5.50;;;2.60;;
313;SDS011;143;51.634;7.112;2023-04-20T01:50:29;5.97;;;2.60;;
313;SDS011;143;51.634;7.112;2023-04-20T01:52:54;5.63;;;2.47;;
313;SDS011;143;51.634;7.112;2023-04-20T01:55:20;9.90;;;3.00;;
313;SDS011;143;51.634;7.112;2023-04-20T01:57:46;4.73;;;2.97;;
313;SDS011;143;51.634;7.112;2023-04-20T02:00:12;4.13;;;2.63;;
313;SDS011;143;51.634;7.112;2023-04-20T02:02:37;5.10;;;2.90;;
313;SDS011;143;51.634;7.112;2023-04-20T02:05:03;3.87;;;2.50;;
313;SDS011;143;51.634;7.112;2023-04-20T02:07:30;3.53;;;2.83;;
313;SDS011;143;51.634;7.112;2023-04-20T02:09:55;5.40;;;2.87;;
313;SDS011;143;51.634;7.112;2023-04-20T02:12:21;7.10;;;2.70;;
313;SDS011;143;51.634;7.112;2023-04-20T02:14:46;4.93;;;2.50;;
313;SDS011;143;51.634;7.112;2023-04-20T02:17:12;8.20;;;2.93;;
313;SDS011;143;51.634;7.112;2023-04-20T02:19:38;9.67;;;3.63;;
313;SDS011;143;51.634;7.112;2023-04-20T02:22:04;11.63;;;3.20;;
313;SDS011;143;51.634;7.112;2023-04-20T02:24:30;6.70;;;2.80;;
313;SDS011;143;51.634;7.112;2023-04-20T02:26:56;9.20;;;3.20;;
313;SDS011;143;51.634;7.112;2023-04-20T02:29:22;9.50;;;2.93;;
313;SDS011;143;51.634;7.112;2023-04-20T02:31:48;6.07;;;2.70;;
313;SDS011;143;51.634;7.112;2023-04-20T02:34:14;8.70;;;3.20;;
313;SDS011;143;51.634;7.112;2023-04-20T02:36:40;4.20;;;2.60;;
313;SDS011;143;51.634;7.112;2023-04-20T02:39:06;18.80;;;2.93;;
313;SDS011;143;51.634;7.112;2023-04-20T02:41:32;7.20;;;3.00;;
313;SDS011;143;51.634;7.112;2023-04-20T02:43:57;6.33;;;2.80;;
313;SDS011;143;51.634;7.112;2023-04-20T02:46:23;20.30;;;3.80;;
313;SDS011;143;51.634;7.112;2023-04-20T02:48:49;9.57;;;3.67;;
313;SDS011;143;51.634;7.112;2023-04-20T02:51:14;5.00;;;2.60;;
313;SDS011;143;51.634;7.112;2023-04-20T02:53:40;11.23;;;3.57;;
313;SDS011;143;51.634;7.112;2023-04-20T02:56:06;4.47;;;3.10;;
313;SDS011;143;51.634;7.112;2023-04-20T02:58:31;8.97;;;3.60;;
313;SDS011;143;51.634;7.112;2023-04-20T03:00:57;8.37;;;3.97;;
313;SDS011;143;51.634;7.112;2023-04-20T03:03:24;7.60;;;3.80;;
313;SDS011;143;51.634;7.112;2023-04-20T03:05:51;13.83;;;4.73;;
313;SDS011;143;51.634;7.112;2023-04-20T03:08:16;6.70;;;3.20;;
313;SDS011;143;51.634;7.112;2023-04-20T03:10:42;11.57;;;5.40;;
313;SDS011;143;51.634;7.112;2023-04-20T03:13:08;10.73;;;4.30;;
313;SDS011;143;51.634;7.112;2023-04-20T03:15:33;16.40;;;3.90;;
313;SDS011;143;51.634;7.112;2023-04-20T03:17:59;7.70;;;4.60;;
313;SDS011;143;51.634;7.112;2023-04-20T03:20:25;10.87;;;3.77;;
313;SDS011;143;51.634;7.112;2023-04-20T03:22:51;9.80;;;4.80;;
313;SDS011;143;51.634;7.112;2023-04-20T03:25:17;8.97;;;4.77;;
313;SDS011;143;51.634;7.112;2023-04-20T03:27:44;9.13;;;4.30;;
313;SDS011;143;51.634;7.112;2023-04-20T03:30:11;7.97;;;4.40;;
313;SDS011;143;51.634;7.112;2023-04-20T03:32:37;6.60;;;4.33;;
313;SDS011;143;51.634;7.112;2023-04-20T03:35:04;8.33;;;4.60;;
313;SDS011;143;51.634;7.112;2023-04-20T03:37:30;7.30;;;4.33;;
313;SDS011;143;51.634;7.112;2023-04-20T03:39:56;7.70;;;4.07;;
313;SDS011;143;51.634;7.112;2023-04-20T03:42:21;8.27;;;4.30;;
313;SDS011;143;51.634;7.112;2023-04-20T03:44:47;11.43;;;4.60;;
313;SDS011;143;51.634;7.112;2023-04-20T03:47:13;18.40;;;6.30;;
313;SDS011;143;51.634;7.112;2023-04-20T03:49:38;6.63;;;3.63;;
313;SDS011;143;51.634;7.112;2023-04-20T03:52:04;8.30;;;3.23;;
313;SDS011;143;51.634;7.112;2023-04-20T03:54:30;8.73;;;4.07;;
313;SDS011;143;51.634;7.112;2023-04-20T03:56:56;6.77;;;3.93;;
313;SDS011;143;51.634;7.112;2023-04-20T03:59:22;8.70;;;4.10;;
313;SDS011;143;51.634;7.112;2023-04-20T04:01:48;9.83;;;3.80;;
313;SDS011;143;51.634;7.112;2023-04-20T04:04:14;5.27;;;3.30;;
313;SDS011;143;51.634;7.112;2023-04-20T04:06:39;7.13;;;3.87;;
313;SDS011;143;51.634;7.112;2023-04-20T04:09:05;6.43;;;3.77;;
313;SDS011;143;51.634;7.112;2023-04-20T04:11:31;6.40;;;3.73;;
313;SDS011;143;51.634;7.112;2023-04-20T04:13:57;9.27;;;4.10;;
313;SDS011;143;51.634;7.112;2023-04-20T04:16:23;8.73;;;4.07;;
313;SDS011;143;51.634;7.112;2023-04-20T04:18:49;6.83;;;3.80;;
313;SDS011;143;51.634;7.112;2023-04-20T04:21:15;7.33;;;3.80;;
313;SDS011;143;51.634;7.112;2023-04-20T04:23:41;7.10;;;3.90;;
313;SDS011;143;51.634;7.112;2023-04-20T04:26:07;7.73;;;4.00;;
313;SDS011;143;51.634;7.112;2023-04-20T04:28:34;6.60;;;3.90;;
313;SDS011;143;51.634;7.112;2023-04-20T04:30:59;8.33;;;4.20;;
313;SDS011;143;51.634;7.112;2023-04-20T04:33:25;5.77;;;4.00;;
313;SDS011;143;51.634;7.112;2023-04-20T04:35:51;6.43;;;4.00;;
313;SDS011;143;51.634;7.112;2023-04-20T04:38:17;8.53;;;3.67;;
313;SDS011;143;51.634;7.112;2023-04-20T04:40:43;15.63;;;4.37;;
313;SDS011;143;51.634;7.112;2023-04-20T04:43:12;7.37;;;4.03;;
313;SDS011;143;51.634;7.112;2023-04-20T04:45:38;11.70;;;4.10;;
313;SDS011;143;51.634;7.112;2023-04-20T04:48:07;6.17;;;3.47;;
313;SDS011;143;51.634;7.112;2023-04-20T04:50:35;11.83;;;3.83;;
313;SDS011;143;51.634;7.112;2023-04-20T04:53:02;6.93;;;3.90;;
313;SDS011;143;51.634;7.112;2023-04-20T04:55:27;9.30;;;4.40;;
313;SDS011;143;51.634;7.112;2023-04-20T04:57:53;4.90;;;3.60;;
313;SDS011;143;51.634;7.112;2023-04-20T05:00:19;6.50;;;3.90;;
313;SDS011;143;51.634;7.112;2023-04-20T05:02:46;8.47;;;3.10;;
313;SDS011;143;51.634;7.112;2023-04-20T05:05:12;15.63;;;3.70;;
313;SDS011;143;51.634;7.112;2023-04-20T05:07:37;7.50;;;4.37;;
313;SDS011;143;51.634;7.112;2023-04-20T05:10:04;8.40;;;3.50;;
313;SDS011;143;51.634;7.112;2023-04-20T05:12:31;6.37;;;3.80;;
313;SDS011;143;51.634;7.112;2023-04-20T05:14:56;13.27;;;4.87;;
313;SDS011;143;51.634;7.112;2023-04-20T05:17:22;6.67;;;3.93;;
313;SDS011;143;51.634;7.112;2023-04-20T05:19:48;5.83;;;3.73;;
313;SDS011;143;51.634;7.112;2023-04-20T05:22:14;7.57;;;4.00;;
313;SDS011;143;51.634;7.112;2023-04-20T05:24:39;7.40;;;3.80;;
313;SDS011;143;51.634;7.112;2023-04-20T05:27:06;7.80;;;4.67;;
313;SDS011;143;51.634;7.112;2023-04-20T05:29:32;9.50;;;4.93;;
313;SDS011;143;51.634;7.112;2023-04-20T05:31:58;9.63;;;4.27;;
313;SDS011;143;51.634;7.112;2023-04-20T05:34:24;8.63;;;4.77;;
313;SDS011;143;51.634;7.112;2023-04-20T05:36:50;11.73;;;4.47;;
313;SDS011;143;51.634;7.112;2023-04-20T05:39:16;7.07;;;4.00;;
313;SDS011;143;51.634;7.112;2023-04-20T05:41:42;17.10;;;5.00;;
313;SDS011;143;51.634;7.112;2023-04-20T05:44:08;8.87;;;4.23;;
313;SDS011;143;51.634;7.112;2023-04-20T05:46:34;9.97;;;4.83;;
313;SDS011;143;51.634;7.112;2023-04-20T05:49:00;8.90;;;3.87;;
313;SDS011;143;51.634;7.112;2023-04-20T05:51:26;8.17;;;4.43;;
313;SDS011;143;51.634;7.112;2023-04-20T05:53:55;7.00;;;3.83;;
313;SDS011;143;51.634;7.112;2023-04-20T05:56:21;8.93;;;5.20;;
313;SDS011;143;51.634;7.112;2023-04-20T05:58:47;6.93;;;4.10;;
313;SDS011;143;51.634;7.112;2023-04-20T06:01:13;10.40;;;4.20;;
313;SDS011;143;51.634;7.112;2023-04-20T06:03:38;9.70;;;4.80;;
313;SDS011;143;51.634;7.112;2023-04-20T06:06:04;6.60;;;4.10;;
313;SDS011;143;51.634;7.112;2023-04-20T06:08:30;8.93;;;4.87;;
313;SDS011;143;51.634;7.112;2023-04-20T06:10:56;9.37;;;4.77;;
313;SDS011;143;51.634;7.112;2023-04-20T06:13:22;9.87;;;4.53;;
313;SDS011;143;51.634;7.112;2023-04-20T06:15:48;11.60;;;4.77;;
313;SDS011;143;51.634;7.112;2023-04-20T06:18:14;11.90;;;4.63;;
313;SDS011;143;51.634;7.112;2023-04-20T06:20:42;7.87;;;4.77;;
313;SDS011;143;51.634;7.112;2023-04-20T06:23:08;7.43;;;4.97;;
313;SDS011;143;51.634;7.112;2023-04-20T06:25:37;7.37;;;4.57;;
313;SDS011;143;51.634;7.112;2023-04-20T06:28:03;7.20;;;5.13;;
313;SDS011;143;51.634;7.112;2023-04-20T06:30:29;11.67;;;5.87;;
313;SDS011;143;51.634;7.112;2023-04-20T06:32:54;10.20;;;5.10;;
313;SDS011;143;51.634;7.112;2023-04-20T06:35:21;11.43;;;5.10;;
313;SDS011;143;51.634;7.112;2023-04-20T06:37:47;9.50;;;4.70;;
313;SDS011;143;51.634;7.112;2023-04-20T06:40:13;13.80;;;5.50;;
313;SDS011;143;51.634;7.112;2023-04-20T06:42:39;11.73;;;4.93;;
313;SDS011;143;51.634;7.112;2023-04-20T06:45:05;9.53;;;5.30;;
313;SDS011;143;51.634;7.112;2023-04-20T06:47:32;10.57;;;4.87;;
313;SDS011;143;51.634;7.112;2023-04-20T06:49:58;8.57;;;6.10;;
313;SDS011;143;51.634;7.112;2023-04-20T06:52:26;9.20;;;4.63;;
313;SDS011;143;51.634;7.112;2023-04-20T06:54:52;10.37;;;4.90;;
313;SDS011;143;51.634;7.112;2023-04-20T06:57:18;9.83;;;4.83;;
313;SDS011;143;51.634;7.112;2023-04-20T06:59:43;9.50;;;5.00;;
313;SDS011;143;51.634;7.112;2023-04-20T07:02:09;9.63;;;6.20;;
313;SDS011;143;51.634;7.112;2023-04-20T07:04:35;8.80;;;5.53;;
313;SDS011;143;51.634;7.112;2023-04-20T07:07:00;11.00;;;4.87;;
313;SDS011;143;51.634;7.112;2023-04-20T07:09:27;8.83;;;4.40;;
313;SDS011;143;51.634;7.112;2023-04-20T07:11:52;10.43;;;4.57;;
313;SDS011;143;51.634;7.112;2023-04-20T07:14:20;8.30;;;5.20;;
313;SDS011;143;51.634;7.112;2023-04-20T07:16:45;10.20;;;6.30;;
313;SDS011;143;51.634;7.112;2023-04-20T07:19:11;9.00;;;4.67;;
313;SDS011;143;51.634;7.112;2023-04-20T07:21:37;10.43;;;5.57;;
313;SDS011;143;51.634;7.112;2023-04-20T07:24:02;8.70;;;5.37;;
313;SDS011;143;51.634;7.112;2023-04-20T07:26:28;7.93;;;4.93;;
313;SDS011;143;51.634;7.112;2023-04-20T07:28:54;11.80;;;5.50;;
313;SDS011;143;51.634;7.112;2023-04-20T07:31:19;8.17;;;5.30;;
313;SDS011;143;51.634;7.112;2023-04-20T07:33:45;9.07;;;4.90;;
313;SDS011;143;51.634;7.112;2023-04-20T07:36:11;5.63;;;4.40;;
313;SDS011;143;51.634;7.112;2023-04-20T07:38:36;6.57;;;4.70;;
313;SDS011;143;51.634;7.112;2023-04-20T07:41:02;9.10;;;5.07;;
313;SDS011;143;51.634;7.112;2023-04-20T07:43:28;8.50;;;5.10;;
313;SDS011;143;51.634;7.112;2023-04-20T07:45:53;7.93;;;4.93;;
313;SDS011;143;51.634;7.112;2023-04-20T07:48:19;8.97;;;5.90;;
313;SDS011;143;51.634;7.112;2023-04-20T07:50:45;7.90;;;5.00;;
313;SDS011;143;51.634;7.112;2023-04-20T07:53:11;7.40;;;4.77;;
313;SDS011;143;51.634;7.112;2023-04-20T07:55:36;8.60;;;4.50;;
313;SDS011;143;51.634;7.112;2023-04-20T07:58:02;8.27;;;5.03;;
313;SDS011;143;51.634;7.112;2023-04-20T08:00:28;8.20;;;5.40;;
313;SDS011;143;51.634;7.112;2023-04-20T08:02:54;9.47;;;5.40;;
313;SDS011;143;51.634;7.112;2023-04-20T08:05:19;7.83;;;5.40;;
313;SDS011;143;51.634;7.112;2023-04-20T08:07:46;8.23;;;5.90;;
313;SDS011;143;51.634;7.112;2023-04-20T08:10:11;10.33;;;5.40;;
313;SDS011;143;51.634;7.112;2023-04-20T08:12:37;9.87;;;7.00;;
313;SDS011;143;51.634;7.112;2023-04-20T08:15:04;8.63;;;5.77;;
313;SDS011;143;51.634;7.112;2023-04-20T08:17:31;10.03;;;5.30;;
313;SDS011;143;51.634;7.112;2023-04-20T08:19:57;8.60;;;5.33;;
313;SDS011;143;51.634;7.112;2023-04-20T08:22:23;11.30;;;6.27;;
313;SDS011;143;51.634;7.112;2023-04-20T08:24:51;11.00;;;6.13;;
313;SDS011;143;51.634;7.112;2023-04-20T08:27:17;8.90;;;6.10;;
313;SDS011;143;51.634;7.112;2023-04-20T08:29:43;10.70;;;6.40;;
313;SDS011;143;51.634;7.112;2023-04-20T08:32:08;13.90;;;6.53;;
313;SDS011;143;51.634;7.112;2023-04-20T08:34:37;7.73;;;5.30;;
313;SDS011;143;51.634;7.112;2023-04-20T08:37:03;10.20;;;6.00;;
313;SDS011;143;51.634;7.112;2023-04-20T08:39:29;14.90;;;7.20;;
313;SDS011;143;51.634;7.112;2023-04-20T08:41:55;9.17;;;5.70;;
313;SDS011;143;51.634;7.112;2023-04-20T08:44:24;9.87;;;6.20;;
313;SDS011;143;51.634;7.112;2023-04-20T08:46:50;11.23;;;5.73;;
313;SDS011;143;51.634;7.112;2023-04-20T08:49:16;8.83;;;6.30;;
313;SDS011;143;51.634;7.112;2023-04-20T08:51:43;15.13;;;5.77;;
313;SDS011;143;51.634;7.112;2023-04-20T08:54:10;10.83;;;6.03;;
313;SDS011;143;51.634;7.112;2023-04-20T08:56:37;8.40;;;6.17;;
313;SDS011;143;51.634;7.112;2023-04-20T08:59:05;11.10;;;7.13;;
313;SDS011;143;51.634;7.112;2023-04-20T09:01:34;15.07;;;6.77;;
313;SDS011;143;51.634;7.112;2023-04-20T09:04:00;10.53;;;6.53;;
313;SDS011;143;51.634;7.112;2023-04-20T09:06:26;12.03;;;6.60;;
313;SDS011;143;51.634;7.112;2023-04-20T09:08:52;11.07;;;6.60;;
313;SDS011;143;51.634;7.112;2023-04-20T09:11:24;10.60;;;6.67;;
313;SDS011;143;51.634;7.112;2023-04-20T09:16:31;12.30;;;6.97;;
313;SDS011;143;51.634;7.112;2023-04-20T09:18:58;9.07;;;5.90;;
313;SDS011;143;51.634;7.112;2023-04-20T09:21:24;10.00;;;7.27;;
313;SDS011;143;51.634;7.112;2023-04-20T09:23:55;15.50;;;7.53;;
313;SDS011;143;51.634;7.112;2023-04-20T09:26:26;11.63;;;6.93;;
313;SDS011;143;51.634;7.112;2023-04-20T09:28:52;10.63;;;6.77;;
313;SDS011;143;51.634;7.112;2023-04-20T09:31:21;14.63;;;7.80;;
313;SDS011;143;51.634;7.112;2023-04-20T09:34:00;13.77;;;7.80;;
313;SDS011;143;51.634;7.112;2023-04-20T09:39:09;12.43;;;7.37;;
313;SDS011;143;51.634;7.112;2023-04-20T09:41:40;13.47;;;8.67;;
313;SDS011;143;51.634;7.112;2023-04-20T09:44:07;12.37;;;8.53;;
313;SDS011;143;51.634;7.112;2023-04-20T09:46:35;10.13;;;6.87;;
313;SDS011;143;51.634;7.112;2023-04-20T09:49:03;14.60;;;6.60;;
313;SDS011;143;51.634;7.112;2023-04-20T09:51:31;7.57;;;5.13;;
313;SDS011;143;51.634;7.112;2023-04-20T09:54:00;7.80;;;5.57;;
313;SDS011;143;51.634;7.112;2023-04-20T09:56:27;11.37;;;6.67;;
313;SDS011;143;51.634;7.112;2023-04-20T09:58:54;10.43;;;6.50;;
313;SDS011;143;51.634;7.112;2023-04-20T10:01:21;8.80;;;6.20;;
313;SDS011;143;51.634;7.112;2023-04-20T10:03:47;14.30;;;6.40;;
313;SDS011;143;51.634;7.112;2023-04-20T10:06:17;9.30;;;6.70;;
313;SDS011;143;51.634;7.112;2023-04-20T10:08:45;13.00;;;6.50;;
313;SDS011;143;51.634;7.112;2023-04-20T10:11:23;9.90;;;6.80;;
313;SDS011;143;51.634;7.112;2023-04-20T10:14:21;10.73;;;7.30;;
313;SDS011;143;51.634;7.112;2023-04-20T10:19:53;10.00;;;7.10;;
313;SDS011;143;51.634;7.112;2023-04-20T10:22:28;11.57;;;7.90;;
313;SDS011;143;51.634;7.112;2023-04-20T10:24:59;11.50;;;7.07;;
313;SDS011;143;51.634;7.112;2023-04-20T10:27:38;13.17;;;7.47;;
313;SDS011;143;51.634;7.112;2023-04-20T10:30:08;10.40;;;8.03;;
313;SDS011;143;51.634;7.112;2023-04-20T10:32:36;10.43;;;6.23;;
313;SDS011;143;51.634;7.112;2023-04-20T10:35:06;13.73;;;7.70;;
313;SDS011;143;51.634;7.112;2023-04-20T10:37:34;9.07;;;6.40;;
313;SDS011;143;51.634;7.112;2023-04-20T10:40:11;13.80;;;7.53;;
313;SDS011;143;51.634;7.112;2023-04-20T10:42:40;9.53;;;7.23;;
313;SDS011;143;51.634;7.112;2023-04-20T10:45:09;9.07;;;6.93;;
313;SDS011;143;51.634;7.112;2023-04-20T10:47:35;12.23;;;6.57;;
313;SDS011;143;51.634;7.112;2023-04-20T10:50:05;13.37;;;6.80;;
313;SDS011;143;51.634;7.112;2023-04-20T10:52:35;11.17;;;8.20;;
313;SDS011;143;51.634;7.112;2023-04-20T10:55:04;7.40;;;5.80;;
313;SDS011;143;51.634;7.112;2023-04-20T10:57:31;7.50;;;5.30;;
313;SDS011;143;51.634;7.112;2023-04-20T10:59:58;9.87;;;5.47;;
313;SDS011;143;51.634;7.112;2023-04-20T11:02:24;6.80;;;5.60;;
313;SDS011;143;51.634;7.112;2023-04-20T11:04:50;6.37;;;5.13;;
313;SDS011;143;51.634;7.112;2023-04-20T11:07:17;8.70;;;5.20;;
313;SDS011;143;51.634;7.112;2023-04-20T11:09:44;8.27;;;5.50;;
313;SDS011;143;51.634;7.112;2023-04-20T11:12:17;8.77;;;6.17;;
313;SDS011;143;51.634;7.112;2023-04-20T11:14:52;8.20;;;5.63;;
313;SDS011;143;51.634;7.112;2023-04-20T11:17:19;8.30;;;5.70;;
313;SDS011;143;51.634;7.112;2023-04-20T11:20:02;8.93;;;4.87;;
313;SDS011;143;51.634;7.112;2023-04-20T11:22:39;7.10;;;5.60;;
313;SDS011;143;51.634;7.112;2023-04-20T11:25:06;7.67;;;5.57;;
313;SDS011;143;51.634;7.112;2023-04-20T11:27:34;8.47;;;5.70;;
313;SDS011;143;51.634;7.112;2023-04-20T11:30:00;7.53;;;4.83;;
313;SDS011;143;51.634;7.112;2023-04-20T11:32:33;5.97;;;4.73;;
313;SDS011;143;51.634;7.112;2023-04-20T11:35:01;9.03;;;5.30;;
313;SDS011;143;51.634;7.112;2023-04-20T11:37:31;8.67;;;5.27;;
313;SDS011;143;51.634;7.112;2023-04-20T11:39:58;8.27;;;5.47;;
313;SDS011;143;51.634;7.112;2023-04-20T11:42:30;5.70;;;4.67;;
313;SDS011;143;51.634;7.112;2023-04-20T11:44:55;7.37;;;4.60;;
313;SDS011;143;51.634;7.112;2023-04-20T11:47:21;7.93;;;5.37;;
313;SDS011;143;51.634;7.112;2023-04-20T11:49:47;8.10;;;5.60;;
313;SDS011;143;51.634;7.112;2023-04-20T11:52:12;5.90;;;4.83;;
313;SDS011;143;51.634;7.112;2023-04-20T11:54:38;8.90;;;5.50;;
313;SDS011;143;51.634;7.112;2023-04-20T11:57:04;8.57;;;5.43;;
313;SDS011;143;51.634;7.112;2023-04-20T11:59:29;7.60;;;4.87;;
313;SDS011;143;51.634;7.112;2023-04-20T12:01:55;8.67;;;6.80;;
313;SDS011;143;51.634;7.112;2023-04-20T12:04:21;10.70;;;6.90;;
313;SDS011;143;51.634;7.112;2023-04-20T12:06:46;7.03;;;5.57;;
313;SDS011;143;51.634;7.112;2023-04-20T12:09:12;10.00;;;5.33;;
313;SDS011;143;51.634;7.112;2023-04-20T12:11:38;8.67;;;5.20;;
313;SDS011;143;51.634;7.112;2023-04-20T12:14:04;8.30;;;5.97;;
313;SDS011;143;51.634;7.112;2023-04-20T12:16:30;7.60;;;5.80;;
313;SDS011;143;51.634;7.112;2023-04-20T12:18:56;7.87;;;5.53;;
313;SDS011;143;51.634;7.112;2023-04-20T12:21:21;11.73;;;6.30;;
313;SDS011;143;51.634;7.112;2023-04-20T12:23:47;8.43;;;5.47;;
313;SDS011;143;51.634;7.112;2023-04-20T12:26:15;14.17;;;6.47;;
313;SDS011;143;51.634;7.112;2023-04-20T12:28:40;9.90;;;6.03;;
313;SDS011;143;51.634;7.112;2023-04-20T12:31:06;6.47;;;5.17;;
313;SDS011;143;51.634;7.112;2023-04-20T12:33:32;7.70;;;5.50;;
313;SDS011;143;51.634;7.112;2023-04-20T12:35:57;7.40;;;5.30;;
313;SDS011;143;51.634;7.112;2023-04-20T12:38:23;10.80;;;6.97;;
313;SDS011;143;51.634;7.112;2023-04-20T12:40:49;9.23;;;6.27;;
313;SDS011;143;51.634;7.112;2023-04-20T12:43:14;9.27;;;6.00;;
313;SDS011;143;51.634;7.112;2023-04-20T12:45:40;9.83;;;6.50;;
313;SDS011;143;51.634;7.112;2023-04-20T12:48:06;11.30;;;6.50;;
313;SDS011;143;51.634;7.112;2023-04-20T12:50:31;12.07;;;6.53;;
313;SDS011;143;51.634;7.112;2023-04-20T12:52:57;14.83;;;7.00;;
313;SDS011;143;51.634;7.112;2023-04-20T12:55:23;12.10;;;6.90;;
313;SDS011;143;51.634;7.112;2023-04-20T12:57:50;11.97;;;7.83;;
313;SDS011;143;51.634;7.112;2023-04-20T13:00:15;10.20;;;6.40;;
313;SDS011;143;51.634;7.112;2023-04-20T13:02:41;11.30;;;6.87;;
313;SDS011;143;51.634;7.112;2023-04-20T13:05:07;10.60;;;7.47;;
313;SDS011;143;51.634;7.112;2023-04-20T13:07:33;10.83;;;7.40;;
313;SDS011;143;51.634;7.112;2023-04-20T13:09:59;11.00;;;7.53;;
313;SDS011;143;51.634;7.112;2023-04-20T13:12:25;11.77;;;7.83;;
313;SDS011;143;51.634;7.112;2023-04-20T13:14:51;10.63;;;7.87;;
313;SDS011;143;51.634;7.112;2023-04-20T13:17:17;15.07;;;7.70;;
313;SDS011;143;51.634;7.112;2023-04-20T13:19:44;10.93;;;7.97;;
313;SDS011;143;51.634;7.112;2023-04-20T13:22:11;15.13;;;8.70;;
313;SDS011;143;51.634;7.112;2023-04-20T13:24:37;9.73;;;7.37;;
313;SDS011;143;51.634;7.112;2023-04-20T13:27:03;11.43;;;7.40;;
313;SDS011;143;51.634;7.112;2023-04-20T13:29:28;13.80;;;7.70;;
313;SDS011;143;51.634;7.112;2023-04-20T13:31:54;10.70;;;8.20;;
313;SDS011;143;51.634;7.112;2023-04-20T13:34:20;11.47;;;7.07;;
313;SDS011;143;51.634;7.112;2023-04-20T13:36:46;10.60;;;7.53;;
313;SDS011;143;51.634;7.112;2023-04-20T13:39:12;13.20;;;8.30;;
313;SDS011;143;51.634;7.112;2023-04-20T13:41:38;11.20;;;8.03;;
313;SDS011;143;51.634;7.112;2023-04-20T13:44:04;11.87;;;7.93;;
313;SDS011;143;51.634;7.112;2023-04-20T13:46:32;12.03;;;7.77;;
313;SDS011;143;51.634;7.112;2023-04-20T13:48:58;10.93;;;6.90;;
313;SDS011;143;51.634;7.112;2023-04-20T13:51:23;11.30;;;6.90;;
313;SDS011;143;51.634;7.112;2023-04-20T13:53:50;13.73;;;6.90;;
313;SDS011;143;51.634;7.112;2023-04-20T13:56:16;11.77;;;7.40;;
313;SDS011;143;51.634;7.112;2023-04-20T13:58:42;9.90;;;6.50;;
313;SDS011;143;51.634;7.112;2023-04-20T14:01:09;12.40;;;7.10;;
313;SDS011;143;51.634;7.112;2023-04-20T14:03:36;11.50;;;7.57;;
313;SDS011;143;51.634;7.112;2023-04-20T14:06:01;12.30;;;7.80;;
313;SDS011;143;51.634;7.112;2023-04-20T14:08:28;12.40;;;8.40;;
313;SDS011;143;51.634;7.112;2023-04-20T14:10:54;14.20;;;8.10;;
313;SDS011;143;51.634;7.112;2023-04-20T14:13:20;10.30;;;7.30;;
313;SDS011;143;51.634;7.112;2023-04-20T14:15:46;11.50;;;7.67;;
313;SDS011;143;51.634;7.112;2023-04-20T14:18:12;10.87;;;6.87;;
313;SDS011;143;51.634;7.112;2023-04-20T14:20:37;8.60;;;6.37;;
313;SDS011;143;51.634;7.112;2023-04-20T14:23:03;11.30;;;6.60;;
313;SDS011;143;51.634;7.112;2023-04-20T14:25:29;11.20;;;6.60;;
313;SDS011;143;51.634;7.112;2023-04-20T14:27:55;10.47;;;7.53;;
313;SDS011;143;51.634;7.112;2023-04-20T14:30:21;9.77;;;7.60;;
313;SDS011;143;51.634;7.112;2023-04-20T14:32:53;14.93;;;7.40;;
313;SDS011;143;51.634;7.112;2023-04-20T14:35:23;9.30;;;7.13;;
313;SDS011;143;51.634;7.112;2023-04-20T14:37:50;13.53;;;7.50;;
313;SDS011;143;51.634;7.112;2023-04-20T14:40:17;14.83;;;7.03;;
313;SDS011;143;51.634;7.112;2023-04-20T14:42:44;9.43;;;6.80;;
313;SDS011;143;51.634;7.112;2023-04-20T14:45:10;10.07;;;6.40;;
313;SDS011;143;51.634;7.112;2023-04-20T14:47:37;10.03;;;6.37;;
313;SDS011;143;51.634;7.112;2023-04-20T14:50:03;12.50;;;7.33;;
313;SDS011;143;51.634;7.112;2023-04-20T14:52:30;12.23;;;7.23;;
313;SDS011;143;51.634;7.112;2023-04-20T14:54:55;9.90;;;6.63;;
313;SDS011;143;51.634;7.112;2023-04-20T14:57:21;10.23;;;7.00;;
313;SDS011;143;51.634;7.112;2023-04-20T14:59:47;9.43;;;6.40;;
313;SDS011;143;51.634;7.112;2023-04-20T15:02:12;13.90;;;5.13;;
313;SDS011;143;51.634;7.112;2023-04-20T15:04:38;9.00;;;6.07;;
313;SDS011;143;51.634;7.112;2023-04-20T15:07:04;9.03;;;6.53;;
313;SDS011;143;51.634;7.112;2023-04-20T15:09:30;8.63;;;5.60;;
313;SDS011;143;51.634;7.112;2023-04-20T15:11:56;6.60;;;5.17;;
313;SDS011;143;51.634;7.112;2023-04-20T15:14:23;9.23;;;6.57;;
313;SDS011;143;51.634;7.112;2023-04-20T15:16:52;8.67;;;5.90;;
313;SDS011;143;51.634;7.112;2023-04-20T15:19:18;8.47;;;5.60;;
313;SDS011;143;51.634;7.112;2023-04-20T15:21:44;7.30;;;5.63;;
313;SDS011;143;51.634;7.112;2023-04-20T15:24:10;8.60;;;5.20;;
313;SDS011;143;51.634;7.112;2023-04-20T15:26:36;7.47;;;6.07;;
313;SDS011;143;51.634;7.112;2023-04-20T15:29:02;7.60;;;5.43;;
313;SDS011;143;51.634;7.112;2023-04-20T15:31:27;8.63;;;6.13;;
313;SDS011;143;51.634;7.112;2023-04-20T15:33:54;13.60;;;5.63;;
313;SDS011;143;51.634;7.112;2023-04-20T15:36:21;7.67;;;5.53;;
313;SDS011;143;51.634;7.112;2023-04-20T15:38:47;7.37;;;5.93;;
313;SDS011;143;51.634;7.112;2023-04-20T15:41:12;7.37;;;5.83;;
313;SDS011;143;51.634;7.112;2023-04-20T15:43:40;7.40;;;5.40;;
313;SDS011;143;51.634;7.112;2023-04-20T15:46:07;7.63;;;5.27;;